Time;durP1;ratioP1;P1;durP2;ratioP2;P2;SDS_P1;SDS_P2;PMS_P1;PMS_P2;Temp;Humidity;BMP_temperature;BMP_pressure;BME280_temperature;BME280_humidity;BME280_pressure;Samples;Min_cycle;Max_cycle;Signal;HPM_P1;HPM_P2
2024/03/10 00:01:03;;;;;;;9.57;8.63;;;4.80;99.90;;;;;;4973143;28;20207;-61
2024/03/10 00:03:30;;;;;;;13.40;10.77;;;4.70;99.90;;;;;;4973406;28;20647;-61
2024/03/10 00:05:57;;;;;;;14.23;9.50;;;4.70;99.90;;;;;;4973580;28;20206;-61
2024/03/10 00:08:24;;;;;;;9.43;8.35;;;4.70;99.90;;;;;;4973024;28;20213;-62
2024/03/10 00:10:51;;;;;;;10.30;8.88;;;4.70;99.90;;;;;;4973220;28;20601;-62
2024/03/10 00:13:18;;;;;;;10.63;9.57;;;4.60;99.90;;;;;;4973496;28;20231;-61
2024/03/10 00:15:45;;;;;;;11.13;9.43;;;4.60;99.90;;;;;;4973385;28;20588;-61
2024/03/10 00:18:13;;;;;;;14.63;9.02;;;4.60;99.90;;;;;;4973291;28;20211;-61
2024/03/10 00:20:40;;;;;;;12.82;10.30;;;4.60;99.90;;;;;;4973077;28;20201;-62
2024/03/10 00:23:06;;;;;;;14.18;11.15;;;4.50;99.90;;;;;;4973308;28;20205;-62
2024/03/10 00:25:33;;;;;;;16.35;10.30;;;4.50;99.90;;;;;;4973081;28;20263;-62
2024/03/10 00:28:00;;;;;;;14.15;11.52;;;4.50;99.90;;;;;;4973260;28;20207;-62
2024/03/10 00:30:28;;;;;;;10.95;9.85;;;4.40;99.90;;;;;;4972540;28;20229;-62
2024/03/10 00:32:55;;;;;;;10.38;9.25;;;4.40;99.90;;;;;;4972847;28;20201;-62
2024/03/10 00:35:23;;;;;;;13.20;9.48;;;4.40;99.90;;;;;;4972563;28;20296;-62
2024/03/10 00:37:51;;;;;;;13.65;10.30;;;4.40;99.90;;;;;;4972790;28;20215;-62
2024/03/10 00:40:18;;;;;;;12.98;11.55;;;4.40;99.90;;;;;;4972556;28;20232;-61
2024/03/10 00:42:45;;;;;;;12.75;10.00;;;4.30;99.90;;;;;;4972729;28;20675;-61
2024/03/10 00:45:12;;;;;;;14.38;12.05;;;4.30;99.90;;;;;;4972626;28;20733;-61
2024/03/10 00:47:39;;;;;;;10.55;9.43;;;4.30;99.90;;;;;;4972534;28;20583;-62
2024/03/10 00:50:08;;;;;;;13.10;10.40;;;4.30;99.90;;;;;;4972197;28;20650;-61
2024/03/10 00:52:36;;;;;;;11.25;10.20;;;4.30;99.90;;;;;;4972580;28;20205;-61
2024/03/10 00:55:04;;;;;;;11.55;10.45;;;4.30;99.90;;;;;;4972149;28;20229;-61
2024/03/10 00:57:32;;;;;;;12.40;9.95;;;4.30;99.90;;;;;;4972413;28;20209;-61
2024/03/10 00:59:59;;;;;;;13.40;10.35;;;4.30;99.90;;;;;;4972235;28;20586;-61
2024/03/10 01:02:26;;;;;;;11.93;9.68;;;4.30;99.90;;;;;;4972337;28;20223;-62
2024/03/10 01:04:53;;;;;;;13.98;11.30;;;4.30;99.90;;;;;;4972458;28;20248;-61
2024/03/10 01:07:20;;;;;;;12.32;11.13;;;4.30;99.90;;;;;;4972466;28;20583;-61
2024/03/10 01:09:48;;;;;;;17.55;10.73;;;4.30;99.90;;;;;;4971696;28;20212;-61
2024/03/10 01:12:16;;;;;;;15.13;9.75;;;4.30;99.90;;;;;;4971481;28;20231;-62
2024/03/10 01:14:43;;;;;;;15.60;11.15;;;4.30;99.90;;;;;;4972074;28;20232;-61
2024/03/10 01:17:10;;;;;;;12.13;9.82;;;4.30;99.90;;;;;;4972013;28;20613;-61
2024/03/10 01:19:37;;;;;;;12.65;11.18;;;4.30;99.90;;;;;;4971692;28;20244;-61
2024/03/10 01:22:04;;;;;;;12.57;11.30;;;4.30;99.90;;;;;;4972154;28;20201;-61
2024/03/10 01:24:32;;;;;;;11.15;10.05;;;4.30;99.90;;;;;;4971971;28;20284;-62
2024/03/10 01:27:02;;;;;;;15.38;11.70;;;4.30;99.90;;;;;;4971489;28;20213;-62
2024/03/10 01:29:28;;;;;;;11.73;9.90;;;4.30;99.90;;;;;;4971791;28;20212;-62
2024/03/10 01:31:56;;;;;;;15.82;10.85;;;4.30;99.90;;;;;;4971228;28;20232;-61
2024/03/10 01:34:23;;;;;;;13.45;10.27;;;4.30;99.90;;;;;;4971844;28;20659;-61
2024/03/10 01:36:50;;;;;;;12.63;11.30;;;4.30;99.90;;;;;;4971987;28;20296;-61
2024/03/10 01:39:17;;;;;;;12.63;10.25;;;4.30;99.90;;;;;;4971937;28;20764;-61
2024/03/10 01:41:45;;;;;;;14.20;10.90;;;4.30;99.90;;;;;;4971580;28;20201;-61
2024/03/10 01:44:13;;;;;;;10.68;9.13;;;4.30;99.90;;;;;;4972148;28;20291;-61
2024/03/10 01:46:40;;;;;;;13.43;11.07;;;4.30;99.90;;;;;;4970880;28;20236;-61
2024/03/10 01:49:08;;;;;;;15.93;10.68;;;4.30;99.90;;;;;;4972110;28;20703;-61
2024/03/10 01:51:38;;;;;;;13.50;12.10;;;4.30;99.90;;;;;;4971625;28;20235;-61
2024/03/10 01:54:08;;;;;;;16.25;11.23;;;4.30;99.90;;;;;;4971844;28;20248;-61
2024/03/10 01:56:36;;;;;;;11.25;9.98;;;4.30;99.90;;;;;;4971969;28;20213;-61
2024/03/10 01:59:03;;;;;;;12.35;10.02;;;4.30;99.90;;;;;;4981980;28;20854;-62
2024/03/10 02:01:35;;;;;;;14.80;11.00;;;4.30;99.90;;;;;;4983171;28;20210;-61
2024/03/10 02:04:03;;;;;;;15.02;11.25;;;4.20;99.90;;;;;;4979667;28;20276;-61
2024/03/10 02:06:30;;;;;;;16.83;11.88;;;4.20;99.90;;;;;;4972113;28;20266;-61
2024/03/10 02:08:57;;;;;;;13.27;11.90;;;4.30;99.90;;;;;;4970589;28;20205;-62
2024/03/10 02:11:24;;;;;;;13.63;12.15;;;4.20;99.90;;;;;;4971025;28;20966;-61
2024/03/10 02:13:51;;;;;;;16.48;11.68;;;4.20;99.90;;;;;;4971793;28;20291;-60
2024/03/10 02:16:19;;;;;;;13.95;10.93;;;4.20;99.90;;;;;;4972103;28;20564;-61
2024/03/10 02:18:47;;;;;;;12.88;10.82;;;4.20;99.90;;;;;;4972162;28;20215;-60
2024/03/10 02:21:18;;;;;;;13.35;12.05;;;4.20;99.90;;;;;;4971554;28;20205;-61
2024/03/10 02:23:56;;;;;;;17.60;12.95;;;4.20;99.90;;;;;;4971820;28;20252;-61
2024/03/10 02:26:32;;;;;;;13.60;11.27;;;4.20;99.90;;;;;;4971979;28;20209;-62
2024/03/10 02:29:14;;;;;;;13.40;12.02;;;4.30;99.90;;;;;;4972107;28;20593;-61
2024/03/10 02:48:11;;;;;;;12.60;10.15;;;4.30;99.90;;;;;;4946258;28;20212;-60
2024/03/10 02:50:38;;;;;;;12.82;11.52;;;4.30;99.90;;;;;;4986633;28;20206;-62
2024/03/10 02:53:05;;;;;;;13.55;11.25;;;4.30;99.90;;;;;;4994679;28;20219;-61
2024/03/10 02:55:33;;;;;;;15.98;13.20;;;4.30;99.90;;;;;;4995067;28;20212;-61
2024/03/10 02:58:03;;;;;;;13.45;10.63;;;4.30;99.90;;;;;;4995159;28;20592;-60
2024/03/10 03:00:31;;;;;;;15.48;10.90;;;4.30;99.90;;;;;;4994785;28;20298;-61
2024/03/10 03:02:58;;;;;;;14.88;11.43;;;4.40;99.90;;;;;;4994569;28;20215;-59
2024/03/10 03:05:26;;;;;;;15.00;12.18;;;4.40;99.90;;;;;;4994761;28;20212;-62
2024/03/10 03:07:53;;;;;;;13.55;11.80;;;4.40;99.90;;;;;;4994875;28;20259;-62
2024/03/10 03:10:19;;;;;;;15.75;11.30;;;4.40;99.90;;;;;;4994614;28;20217;-60
2024/03/10 03:12:46;;;;;;;13.47;11.93;;;4.40;99.90;;;;;;4994772;28;20227;-61
2024/03/10 03:15:15;;;;;;;13.73;10.95;;;4.50;99.90;;;;;;4994620;28;20475;-61
2024/03/10 03:17:42;;;;;;;15.40;11.93;;;4.50;99.90;;;;;;4994677;28;20736;-61
2024/03/10 03:20:15;;;;;;;19.98;13.40;;;4.50;99.90;;;;;;4994191;28;20295;-61
2024/03/10 03:22:43;;;;;;;14.82;12.15;;;4.50;99.90;;;;;;4992011;28;20201;-61
2024/03/10 03:25:11;;;;;;;15.63;12.77;;;4.50;99.90;;;;;;4988864;28;20229;-61
2024/03/10 03:27:38;;;;;;;15.43;13.10;;;4.50;99.90;;;;;;4994421;28;20208;-62
2024/03/10 03:30:07;;;;;;;17.17;14.07;;;4.40;99.90;;;;;;4994098;28;20204;-61
2024/03/10 03:32:35;;;;;;;18.42;13.85;;;4.40;99.90;;;;;;4994252;28;20237;-60
2024/03/10 03:35:02;;;;;;;12.65;11.35;;;4.40;99.90;;;;;;4994172;28;20234;-62
2024/03/10 03:37:29;;;;;;;17.88;12.60;;;4.40;99.90;;;;;;4993747;28;20205;-62
2024/03/10 03:39:56;;;;;;;16.50;12.90;;;4.40;99.90;;;;;;4993732;28;20271;-62
2024/03/10 03:42:23;;;;;;;16.27;13.70;;;4.30;99.90;;;;;;4994185;28;20594;-61
2024/03/10 03:44:50;;;;;;;17.48;13.75;;;4.30;99.90;;;;;;4994067;28;20319;-61
2024/03/10 03:47:17;;;;;;;15.95;12.00;;;4.30;99.90;;;;;;4993819;28;20220;-61
2024/03/10 03:49:45;;;;;;;15.95;12.77;;;4.30;99.90;;;;;;4993197;28;20696;-62
2024/03/10 03:52:12;;;;;;;16.25;12.02;;;4.30;99.90;;;;;;4993855;28;20251;-61
2024/03/10 03:54:41;;;;;;;15.57;12.48;;;4.30;99.90;;;;;;4993686;28;20738;-61
2024/03/10 03:57:08;;;;;;;18.65;13.15;;;4.20;99.90;;;;;;4993826;28;20240;-61
2024/03/10 03:59:36;;;;;;;17.92;12.65;;;4.20;99.90;;;;;;4993557;28;20243;-62
2024/03/10 04:02:03;;;;;;;16.98;12.93;;;4.20;99.90;;;;;;4993928;28;20201;-62
2024/03/10 04:04:30;;;;;;;16.38;13.30;;;4.20;99.90;;;;;;4993629;28;20295;-61
2024/03/10 04:06:58;;;;;;;14.90;13.23;;;4.20;99.90;;;;;;4993676;28;20212;-62
2024/03/10 04:09:25;;;;;;;19.52;12.32;;;4.20;99.90;;;;;;4993677;28;20204;-61
2024/03/10 04:11:53;;;;;;;15.80;13.80;;;4.20;99.90;;;;;;4993291;28;20603;-61
2024/03/10 04:14:20;;;;;;;18.48;14.10;;;4.20;99.90;;;;;;4988943;28;20763;-62
2024/03/10 04:16:47;;;;;;;16.08;13.35;;;4.30;99.90;;;;;;4984939;28;20218;-61
2024/03/10 04:19:13;;;;;;;20.52;14.75;;;4.20;99.90;;;;;;4993556;28;20211;-61
2024/03/10 04:21:40;;;;;;;17.42;14.38;;;4.20;99.90;;;;;;4993120;28;20218;-61
2024/03/10 04:24:10;;;;;;;17.77;14.05;;;4.20;99.90;;;;;;4992163;28;20601;-61
2024/03/10 04:26:42;;;;;;;15.75;13.02;;;4.20;99.90;;;;;;4993407;28;20204;-61
2024/03/10 04:29:09;;;;;;;17.70;12.32;;;4.20;99.90;;;;;;4993529;28;20300;-61
2024/03/10 04:31:36;;;;;;;16.48;13.90;;;4.20;99.90;;;;;;4993015;28;20228;-61
2024/03/10 04:34:04;;;;;;;17.70;14.88;;;4.20;99.90;;;;;;4993259;28;20264;-61
2024/03/10 04:36:30;;;;;;;19.60;14.25;;;4.10;99.90;;;;;;4993169;28;20263;-61
2024/03/10 04:38:59;;;;;;;18.65;13.65;;;4.10;99.90;;;;;;4993125;28;20295;-61
2024/03/10 04:41:27;;;;;;;15.80;13.10;;;4.10;99.90;;;;;;4992730;28;20299;-62
2024/03/10 04:43:54;;;;;;;20.20;17.35;;;4.10;99.90;;;;;;4992971;28;20228;-61
2024/03/10 04:46:21;;;;;;;17.73;13.43;;;4.10;99.90;;;;;;4993058;28;20219;-61
2024/03/10 04:48:50;;;;;;;28.02;18.48;;;4.10;99.90;;;;;;4977236;28;20593;-61
2024/03/10 04:51:17;;;;;;;17.23;14.27;;;4.10;99.90;;;;;;4972909;28;20304;-61
2024/03/10 04:53:44;;;;;;;17.50;14.77;;;4.10;99.90;;;;;;4973095;28;20256;-62
2024/03/10 04:56:12;;;;;;;18.20;14.85;;;4.10;99.90;;;;;;4973292;28;20217;-61
2024/03/10 04:58:41;;;;;;;21.52;15.55;;;4.10;99.90;;;;;;4973456;28;20630;-61
2024/03/10 05:01:08;;;;;;;19.55;14.18;;;4.10;99.90;;;;;;4972228;28;20223;-61
2024/03/10 05:03:38;;;;;;;19.33;15.65;;;4.10;99.90;;;;;;4973141;28;20272;-61
2024/03/10 05:06:06;;;;;;;20.60;16.67;;;4.10;99.90;;;;;;4973072;28;20215;-60
2024/03/10 05:08:33;;;;;;;22.13;16.10;;;4.10;99.90;;;;;;4973320;28;20296;-61
2024/03/10 05:11:03;;;;;;;20.48;15.02;;;4.10;99.90;;;;;;4972569;28;20205;-61
2024/03/10 05:13:30;;;;;;;19.75;16.67;;;4.10;99.90;;;;;;4972944;28;20649;-61
2024/03/10 05:15:58;;;;;;;23.88;15.75;;;4.20;99.90;;;;;;4973008;28;20213;-61
2024/03/10 05:18:26;;;;;;;25.90;15.75;;;4.20;99.90;;;;;;4972799;28;20272;-61
2024/03/10 05:20:53;;;;;;;18.67;15.02;;;4.20;99.90;;;;;;4972399;28;20244;-61
2024/03/10 05:23:19;;;;;;;22.35;16.25;;;4.20;99.90;;;;;;4972740;28;20221;-61
2024/03/10 05:25:46;;;;;;;29.52;18.48;;;4.20;99.90;;;;;;4973036;28;20221;-60
2024/03/10 05:28:13;;;;;;;27.30;19.13;;;4.20;99.90;;;;;;4972738;28;20219;-61
2024/03/10 05:30:42;;;;;;;27.13;18.85;;;4.20;99.90;;;;;;4972462;28;20308;-61
2024/03/10 05:33:10;;;;;;;27.42;19.58;;;4.30;99.90;;;;;;4972455;28;20299;-61
2024/03/10 05:35:37;;;;;;;29.15;19.70;;;4.50;99.90;;;;;;4972926;28;20208;-62
2024/03/10 05:38:05;;;;;;;26.80;17.98;;;4.50;99.90;;;;;;4972768;28;20220;-62
2024/03/10 05:40:32;;;;;;;22.92;19.25;;;4.50;99.90;;;;;;4972386;28;20469;-62
2024/03/10 05:42:59;;;;;;;25.52;18.27;;;4.60;99.90;;;;;;4972235;28;20205;-61
2024/03/10 05:45:26;;;;;;;25.92;19.55;;;4.50;99.90;;;;;;4972263;28;20303;-62
2024/03/10 05:47:53;;;;;;;26.00;19.85;;;4.60;99.90;;;;;;4972603;28;20209;-62
2024/03/10 05:50:21;;;;;;;25.65;18.27;;;4.50;99.90;;;;;;4972347;28;20589;-61
2024/03/10 05:52:48;;;;;;;26.92;18.17;;;4.60;99.90;;;;;;4972476;28;20614;-61
2024/03/10 05:55:15;;;;;;;22.85;17.38;;;4.50;99.90;;;;;;4972268;28;20232;-61
2024/03/10 05:57:42;;;;;;;24.15;18.17;;;4.50;99.90;;;;;;4971127;28;20638;-61
2024/03/10 06:00:14;;;;;;;23.88;18.58;;;4.60;99.90;;;;;;4971763;28;20219;-61
2024/03/10 06:02:44;;;;;;;19.40;17.17;;;4.60;99.90;;;;;;4972212;28;20714;-61
2024/03/10 06:05:12;;;;;;;23.05;17.20;;;4.60;99.90;;;;;;4972298;28;20235;-61
2024/03/10 06:07:41;;;;;;;22.58;18.17;;;4.50;99.90;;;;;;4972151;28;20296;-61
2024/03/10 06:10:10;;;;;;;24.85;18.23;;;4.50;99.90;;;;;;4972031;28;20209;-61
2024/03/10 06:12:37;;;;;;;23.88;18.75;;;4.50;99.90;;;;;;4971666;28;20225;-62
2024/03/10 06:15:05;;;;;;;26.25;17.98;;;4.50;99.90;;;;;;4971963;28;20225;-62
2024/03/10 06:17:33;;;;;;;26.80;18.27;;;4.50;99.90;;;;;;4971941;28;20280;-62
2024/03/10 06:25:30;;;;;;;23.73;18.10;;;4.60;99.90;;;;;;4972190;28;20208;-62
2024/03/10 06:27:57;;;;;;;26.80;19.77;;;4.60;99.90;;;;;;4972033;28;20219;-61
2024/03/10 06:30:24;;;;;;;28.65;20.17;;;4.60;99.90;;;;;;4971680;28;20209;-61
2024/03/10 06:32:52;;;;;;;24.45;18.10;;;4.70;99.90;;;;;;4971810;28;20231;-61
2024/03/10 06:35:19;;;;;;;25.38;19.33;;;4.70;99.90;;;;;;4971564;28;20320;-62
2024/03/10 06:37:48;;;;;;;27.27;18.85;;;4.70;99.90;;;;;;4972153;28;20618;-62
2024/03/10 06:40:16;;;;;;;24.75;19.30;;;4.70;99.90;;;;;;4971814;28;20267;-62
2024/03/10 06:42:44;;;;;;;26.50;19.23;;;4.80;99.90;;;;;;4972080;28;20212;-62
2024/03/10 06:45:11;;;;;;;22.92;18.30;;;4.80;99.90;;;;;;4971834;28;20260;-62
2024/03/10 06:47:38;;;;;;;21.80;18.67;;;4.90;99.90;;;;;;4971746;28;20648;-62
2024/03/10 06:50:06;;;;;;;31.08;21.00;;;4.90;99.90;;;;;;4971427;28;20679;-62
2024/03/10 06:52:33;;;;;;;27.63;20.48;;;5.00;99.90;;;;;;4971853;28;20258;-61
2024/03/10 06:55:03;;;;;;;27.63;18.98;;;5.00;99.90;;;;;;4971525;28;20236;-61
2024/03/10 06:57:29;;;;;;;27.55;20.08;;;5.00;99.90;;;;;;4971668;28;20271;-62
2024/03/10 06:59:56;;;;;;;26.08;18.92;;;5.10;99.90;;;;;;4971223;28;20204;-61
2024/03/10 07:02:23;;;;;;;24.33;21.15;;;5.20;99.90;;;;;;4971395;28;20210;-61
2024/03/10 07:04:50;;;;;;;28.98;20.38;;;5.30;99.90;;;;;;4971962;28;20229;-62
2024/03/10 07:07:17;;;;;;;26.45;22.08;;;5.40;99.90;;;;;;4971644;28;20211;-62
2024/03/10 07:09:44;;;;;;;27.23;20.92;;;5.50;99.90;;;;;;4971437;28;20215;-62
2024/03/10 07:12:13;;;;;;;27.63;22.38;;;5.50;99.90;;;;;;4971022;28;20283;-62
2024/03/10 07:14:40;;;;;;;26.55;19.63;;;5.60;99.90;;;;;;4970973;28;20235;-62
2024/03/10 07:17:07;;;;;;;24.02;19.33;;;5.70;99.90;;;;;;4971412;28;20683;-61
2024/03/10 07:19:36;;;;;;;30.85;21.08;;;5.80;99.90;;;;;;4971536;28;20209;-62
2024/03/10 07:22:02;;;;;;;24.88;20.42;;;5.80;99.90;;;;;;4971623;28;20291;-62
2024/03/10 07:24:29;;;;;;;26.55;20.13;;;5.90;99.90;;;;;;4971981;28;20311;-62
2024/03/10 07:26:56;;;;;;;27.05;20.85;;;6.00;99.90;;;;;;4974780;28;20212;-61
2024/03/10 07:29:24;;;;;;;27.52;20.70;;;6.00;99.90;;;;;;4974935;28;20760;-61
2024/03/10 07:31:51;;;;;;;28.88;20.42;;;6.10;99.90;;;;;;4974531;28;20589;-62
2024/03/10 07:34:18;;;;;;;23.52;19.20;;;6.20;99.90;;;;;;4975050;28;20244;-61
2024/03/10 07:36:45;;;;;;;29.27;22.10;;;6.30;99.90;;;;;;4975073;28;20709;-62
2024/03/10 07:39:14;;;;;;;31.63;22.02;;;6.40;99.90;;;;;;4974872;28;20209;-62
2024/03/10 07:41:42;;;;;;;29.33;23.25;;;6.60;99.90;;;;;;4974509;28;20303;-62
2024/03/10 07:44:09;;;;;;;28.98;22.25;;;6.70;99.90;;;;;;4974600;28;20580;-61
2024/03/10 07:46:38;;;;;;;26.15;19.88;;;6.80;99.90;;;;;;4974946;28;20209;-62
2024/03/10 07:49:06;;;;;;;25.58;21.10;;;6.80;99.90;;;;;;4974917;28;20213;-62
2024/03/10 07:51:33;;;;;;;25.88;21.63;;;7.00;99.90;;;;;;4974460;28;20209;-62
2024/03/10 07:54:01;;;;;;;25.75;21.23;;;7.00;99.90;;;;;;4974172;28;20243;-62
2024/03/10 07:56:28;;;;;;;24.77;19.42;;;7.20;99.90;;;;;;4973141;28;20684;-62
2024/03/10 07:58:56;;;;;;;26.33;20.23;;;7.30;99.90;;;;;;4974285;28;20710;-62
2024/03/10 08:01:23;;;;;;;21.77;18.35;;;7.30;99.90;;;;;;4974136;28;20300;-62
2024/03/10 08:03:54;;;;;;;26.73;20.23;;;7.50;99.90;;;;;;4974311;28;20229;-62
2024/03/10 08:06:21;;;;;;;23.00;19.05;;;7.50;99.90;;;;;;4972302;28;20267;-62
2024/03/10 08:08:48;;;;;;;28.37;19.30;;;7.60;99.90;;;;;;4980940;28;20683;-62
2024/03/10 08:11:15;;;;;;;22.25;18.15;;;7.70;99.90;;;;;;4983485;28;20981;-62
2024/03/10 08:13:42;;;;;;;24.63;20.42;;;7.80;99.90;;;;;;4983617;28;20225;-62
2024/03/10 08:16:09;;;;;;;21.70;18.65;;;7.80;99.90;;;;;;4993674;28;20566;-62
2024/03/10 08:18:35;;;;;;;23.50;20.13;;;7.90;99.90;;;;;;4993596;28;20208;-62
2024/03/10 08:21:04;;;;;;;26.52;20.65;;;7.90;99.90;;;;;;4993259;28;20454;-62
2024/03/10 08:23:31;;;;;;;23.60;20.85;;;7.90;99.90;;;;;;4993468;28;20311;-62
2024/03/10 08:25:59;;;;;;;23.48;17.92;;;8.00;99.90;;;;;;4993331;28;20303;-62
2024/03/10 08:28:26;;;;;;;21.50;18.35;;;8.00;99.90;;;;;;4993459;28;20595;-62
2024/03/10 08:30:54;;;;;;;19.73;17.63;;;8.00;99.90;;;;;;4993140;28;20213;-62
2024/03/10 08:33:21;;;;;;;26.00;23.37;;;8.00;99.90;;;;;;4993268;28;20876;-62
2024/03/10 08:35:48;;;;;;;24.10;19.80;;;8.10;99.90;;;;;;4992447;28;20443;-62
2024/03/10 08:38:16;;;;;;;22.75;18.20;;;8.20;99.90;;;;;;4992912;28;20542;-62
2024/03/10 08:40:43;;;;;;;20.83;18.03;;;8.20;99.90;;;;;;4993127;28;20236;-62
2024/03/10 08:43:10;;;;;;;23.57;18.13;;;8.30;99.90;;;;;;4992798;28;20989;-62
2024/03/10 08:45:38;;;;;;;23.97;18.33;;;8.40;99.90;;;;;;4993146;28;20965;-62
2024/03/10 08:48:09;;;;;;;19.17;16.83;;;8.40;99.90;;;;;;4993057;28;20455;-62
2024/03/10 08:50:36;;;;;;;25.07;18.77;;;8.50;99.90;;;;;;4989765;28;20539;-62
2024/03/10 08:53:04;;;;;;;23.05;17.77;;;8.50;99.90;;;;;;4973037;28;20503;-62
2024/03/10 08:55:33;;;;;;;23.30;19.40;;;8.50;99.90;;;;;;4973333;28;20220;-62
2024/03/10 08:58:00;;;;;;;23.40;18.87;;;8.60;99.90;;;;;;4984492;28;20451;-62
2024/03/10 09:00:27;;;;;;;20.70;17.97;;;8.60;99.90;;;;;;4992413;28;20451;-62
2024/03/10 09:02:54;;;;;;;23.67;18.77;;;8.60;99.90;;;;;;4992664;28;20448;-62
2024/03/10 09:05:23;;;;;;;23.47;18.77;;;8.70;99.90;;;;;;4992646;28;20970;-62
2024/03/10 09:07:50;;;;;;;20.90;18.20;;;8.70;99.90;;;;;;4992548;28;20462;-62
2024/03/10 09:10:18;;;;;;;21.80;18.37;;;8.80;99.90;;;;;;4992426;28;20451;-62
2024/03/10 09:12:46;;;;;;;22.27;17.63;;;8.90;99.90;;;;;;4992483;28;20453;-62
2024/03/10 09:15:15;;;;;;;22.13;19.57;;;8.90;99.90;;;;;;4972342;28;20834;-62
2024/03/10 09:17:42;;;;;;;20.87;17.00;;;8.90;99.90;;;;;;4972960;28;20449;-61
2024/03/10 09:20:11;;;;;;;26.13;19.73;;;9.00;99.90;;;;;;4972764;28;20463;-62
2024/03/10 09:22:40;;;;;;;19.70;17.27;;;9.00;99.90;;;;;;4972334;28;20481;-62
2024/03/10 09:25:12;;;;;;;21.83;18.23;;;9.20;99.90;;;;;;4972459;28;20471;-62
2024/03/10 09:27:40;;;;;;;20.90;18.00;;;9.30;99.90;;;;;;4972624;28;20515;-62
2024/03/10 09:30:13;;;;;;;20.43;18.23;;;9.40;99.90;;;;;;4972215;28;20455;-62
2024/03/10 09:32:42;;;;;;;18.80;16.80;;;9.50;99.90;;;;;;4972630;28;20471;-62
2024/03/10 09:35:10;;;;;;;25.30;17.37;;;9.50;99.90;;;;;;4972419;28;20496;-62
2024/03/10 09:37:39;;;;;;;17.37;15.53;;;9.70;99.90;;;;;;4972570;28;20457;-62
2024/03/10 09:40:10;;;;;;;21.00;17.13;;;9.80;99.90;;;;;;4972250;28;20833;-62
2024/03/10 09:42:37;;;;;;;18.10;16.20;;;9.90;99.90;;;;;;4972308;28;20452;-62
2024/03/10 09:45:07;;;;;;;20.70;17.10;;;10.10;99.90;;;;;;4971985;28;20475;-62
2024/03/10 09:47:43;;;;;;;18.00;16.07;;;10.30;99.90;;;;;;4970260;28;20472;-62
2024/03/10 09:50:11;;;;;;;17.80;15.40;;;10.50;99.90;;;;;;4970832;28;20474;-62
2024/03/10 09:52:39;;;;;;;18.50;16.27;;;10.70;99.90;;;;;;4972053;28;20973;-62
2024/03/10 09:55:07;;;;;;;16.87;15.07;;;10.90;99.90;;;;;;4971777;28;20595;-62
2024/03/10 09:57:35;;;;;;;17.03;14.10;;;11.00;99.90;;;;;;4971739;28;20452;-62
2024/03/10 10:00:11;;;;;;;17.37;14.37;;;11.20;99.90;;;;;;4971603;28;20445;-62
2024/03/10 10:02:44;;;;;;;16.63;14.87;;;11.40;99.90;;;;;;4970512;28;20993;-62
2024/03/10 10:05:24;;;;;;;16.53;14.40;;;11.50;99.90;;;;;;4971038;28;20456;-62
2024/03/10 10:07:52;;;;;;;17.00;14.70;;;11.60;99.90;;;;;;4971364;28;20539;-62
2024/03/10 10:10:20;;;;;;;15.70;14.00;;;11.70;99.90;;;;;;4970321;28;20464;-62
2024/03/10 10:12:47;;;;;;;15.37;13.60;;;11.80;99.90;;;;;;4971241;28;20452;-62
2024/03/10 10:15:17;;;;;;;16.00;14.30;;;11.80;99.90;;;;;;4970805;28;20496;-62
2024/03/10 10:17:53;;;;;;;16.67;15.03;;;11.90;99.90;;;;;;4977838;28;20456;-62
2024/03/10 10:20:23;;;;;;;16.37;14.60;;;11.90;99.90;;;;;;4970001;28;20514;-63
2024/03/10 10:22:52;;;;;;;15.77;14.13;;;11.90;99.90;;;;;;4971384;28;20452;-62
2024/03/10 10:25:19;;;;;;;16.87;14.40;;;11.90;99.90;;;;;;4971033;28;20457;-62
2024/03/10 10:27:49;;;;;;;15.40;13.77;;;12.00;99.90;;;;;;4971167;28;21074;-62
2024/03/10 10:30:19;;;;;;;14.83;13.23;;;12.00;99.90;;;;;;4971028;28;20974;-62
2024/03/10 10:32:47;;;;;;;14.57;12.97;;;12.10;99.90;;;;;;4971278;28;20532;-62
2024/03/10 10:35:16;;;;;;;21.80;15.70;;;12.00;99.90;;;;;;4971282;28;20602;-62
2024/03/10 10:37:46;;;;;;;15.17;12.73;;;12.10;99.90;;;;;;4971066;28;20975;-62
2024/03/10 10:40:14;;;;;;;14.80;13.30;;;12.20;99.90;;;;;;4971063;28;20487;-63
2024/03/10 10:42:41;;;;;;;15.20;13.70;;;12.20;99.90;;;;;;4970586;28;20459;-62
2024/03/10 10:45:09;;;;;;;14.90;13.40;;;12.30;99.90;;;;;;4971271;28;20551;-63
2024/03/10 10:47:37;;;;;;;14.50;13.13;;;12.50;99.90;;;;;;4970942;28;20449;-63
2024/03/10 10:50:14;;;;;;;12.03;10.90;;;12.70;99.90;;;;;;4970474;28;20451;-62
2024/03/10 10:52:43;;;;;;;13.20;11.80;;;12.90;99.90;;;;;;4970722;28;20534;-62
2024/03/10 10:55:11;;;;;;;14.07;12.60;;;13.00;99.00;;;;;;4970443;28;20492;-62
2024/03/10 10:57:44;;;;;;;12.20;10.97;;;13.10;99.40;;;;;;4969745;28;20445;-63
2024/03/10 11:00:26;;;;;;;12.83;11.43;;;13.20;98.60;;;;;;4972638;28;21033;-62
2024/03/10 11:03:06;;;;;;;12.53;11.37;;;13.30;98.10;;;;;;4974942;28;20891;-62
2024/03/10 11:05:33;;;;;;;12.00;10.93;;;13.20;97.80;;;;;;4974689;28;20440;-63
2024/03/10 11:08:04;;;;;;;12.37;10.60;;;13.20;97.40;;;;;;4975006;28;20467;-62
2024/03/10 11:10:48;;;;;;;11.17;10.03;;;13.20;97.30;;;;;;4974230;28;20455;-62
2024/03/10 11:13:15;;;;;;;11.73;10.53;;;13.20;97.90;;;;;;4974736;28;20452;-62
2024/03/10 11:15:44;;;;;;;13.87;11.63;;;13.20;98.10;;;;;;4974628;28;20458;-63
2024/03/10 11:18:21;;;;;;;12.77;11.63;;;13.20;98.50;;;;;;4974730;28;20507;-62
2024/03/10 11:20:48;;;;;;;16.27;11.70;;;13.20;98.20;;;;;;4974067;28;20455;-62
2024/03/10 11:23:23;;;;;;;12.60;11.40;;;13.30;98.20;;;;;;4974330;28;20526;-63
2024/03/10 11:25:51;;;;;;;12.13;10.80;;;13.20;97.60;;;;;;4974578;28;20448;-62
2024/03/10 11:28:21;;;;;;;10.93;10.00;;;13.30;98.60;;;;;;4974390;28;20455;-62
2024/03/10 11:30:49;;;;;;;14.07;12.70;;;13.20;97.90;;;;;;4973984;28;20871;-62
2024/03/10 11:33:22;;;;;;;12.20;10.43;;;13.20;98.10;;;;;;4974244;28;20452;-62
2024/03/10 11:35:51;;;;;;;12.30;11.10;;;13.20;98.10;;;;;;4974400;28;20476;-62
2024/03/10 11:38:20;;;;;;;13.27;11.83;;;13.20;98.60;;;;;;4974274;28;20444;-63
2024/03/10 11:40:56;;;;;;;13.63;12.30;;;13.20;98.20;;;;;;4974171;28;20500;-62
2024/03/10 11:43:23;;;;;;;12.63;11.33;;;13.20;98.70;;;;;;4974225;28;20482;-62
2024/03/10 11:45:51;;;;;;;13.33;12.10;;;13.30;98.80;;;;;;4974006;28;20527;-62
2024/03/10 11:48:18;;;;;;;13.38;12.18;;;13.30;98.10;;;;;;4972998;28;20434;-62
2024/03/10 11:50:45;;;;;;;13.00;11.70;;;13.30;97.80;;;;;;4973981;28;20268;-62
2024/03/10 11:53:12;;;;;;;13.27;11.90;;;13.30;97.50;;;;;;4973673;28;20539;-62
2024/03/10 11:55:41;;;;;;;13.20;11.60;;;13.30;97.60;;;;;;4973684;28;20507;-62
2024/03/10 11:58:09;;;;;;;13.63;11.83;;;13.20;97.40;;;;;;4973523;28;20461;-62
2024/03/10 12:00:37;;;;;;;11.63;10.00;;;13.20;97.80;;;;;;4972849;28;20540;-62
2024/03/10 12:03:06;;;;;;;11.00;10.03;;;13.20;97.60;;;;;;4973718;28;20455;-62
2024/03/10 12:05:33;;;;;;;11.60;10.43;;;13.20;97.50;;;;;;4973635;28;20452;-63
2024/03/10 12:08:00;;;;;;;14.97;12.60;;;13.20;97.80;;;;;;4973824;28;20492;-63
2024/03/10 12:10:32;;;;;;;12.07;10.87;;;13.30;97.10;;;;;;4973117;28;20555;-62
2024/03/10 12:13:00;;;;;;;12.60;10.97;;;13.30;97.20;;;;;;4973220;28;20950;-62
2024/03/10 12:15:28;;;;;;;11.23;9.70;;;13.40;97.60;;;;;;4973250;28;20495;-62
2024/03/10 12:17:55;;;;;;;10.73;9.73;;;13.50;97.80;;;;;;4973581;28;20452;-62
2024/03/10 12:20:23;;;;;;;12.33;11.17;;;13.60;97.80;;;;;;4973184;28;20483;-62
2024/03/10 12:22:50;;;;;;;11.07;10.00;;;13.60;96.90;;;;;;4973444;28;20453;-62
2024/03/10 12:25:18;;;;;;;10.80;9.70;;;13.60;97.60;;;;;;4971156;28;20479;-63
2024/03/10 12:27:47;;;;;;;11.53;10.53;;;13.70;97.40;;;;;;4972473;28;20492;-63
2024/03/10 12:30:16;;;;;;;12.17;10.73;;;13.70;97.50;;;;;;4971910;28;20890;-63
2024/03/10 12:32:44;;;;;;;13.70;11.13;;;13.60;97.10;;;;;;4972498;28;20471;-63
2024/03/10 12:35:11;;;;;;;12.20;10.87;;;13.70;97.20;;;;;;4970864;28;20500;-62
2024/03/10 12:37:40;;;;;;;12.67;11.30;;;13.70;96.90;;;;;;4974248;28;20464;-62
2024/03/10 12:40:08;;;;;;;12.60;11.30;;;13.60;97.10;;;;;;4970852;28;20480;-63
2024/03/10 12:42:35;;;;;;;10.10;9.13;;;13.60;97.20;;;;;;4971775;28;20465;-62
2024/03/10 12:45:03;;;;;;;11.53;10.30;;;13.50;97.30;;;;;;4984929;28;20499;-62
2024/03/10 12:47:31;;;;;;;12.30;11.00;;;13.50;97.30;;;;;;4972133;28;20460;-62
2024/03/10 12:49:58;;;;;;;11.47;10.30;;;13.50;97.70;;;;;;4972760;28;20452;-63
2024/03/10 12:52:25;;;;;;;9.87;8.87;;;13.50;97.80;;;;;;4971585;28;20452;-63
2024/03/10 12:54:52;;;;;;;11.73;10.63;;;13.50;97.60;;;;;;4980190;28;20495;-63
2024/03/10 12:57:18;;;;;;;11.27;10.17;;;13.50;97.30;;;;;;4980067;28;20456;-62
2024/03/10 12:59:45;;;;;;;11.23;10.13;;;13.50;97.70;;;;;;4976240;28;22723;-63
2024/03/10 13:02:12;;;;;;;10.67;9.60;;;13.50;97.90;;;;;;4972431;28;20440;-63